createdAt,value
2022-10-18T00:00:12.405Z,3.30
2022-10-18T00:01:14.159Z,3.50
2022-10-18T00:02:15.827Z,3.57
2022-10-18T00:03:17.472Z,3.63
2022-10-18T00:04:19.022Z,3.70
2022-10-18T00:05:20.577Z,3.73
2022-10-18T00:06:22.150Z,4.40
2022-10-18T00:07:23.755Z,4.20
2022-10-18T00:08:26.390Z,3.77
2022-10-18T00:09:27.915Z,4.07
2022-10-18T00:10:29.456Z,3.83
2022-10-18T00:11:31.017Z,3.87
2022-10-18T00:12:37.339Z,4.13
2022-10-18T00:13:39.117Z,4.40
2022-10-18T00:14:40.692Z,4.03
2022-10-18T00:16:12.980Z,3.90
2022-10-18T00:17:14.530Z,4.20
2022-10-18T00:18:16.045Z,3.53
2022-10-18T00:19:17.570Z,3.23
2022-10-18T00:20:19.656Z,3.27
2022-10-18T00:21:22.970Z,3.23
2022-10-18T00:22:25.409Z,3.20
2022-10-18T00:23:28.437Z,3.43
2022-10-18T00:24:29.987Z,3.70
2022-10-18T00:25:31.499Z,3.33
2022-10-18T00:26:33.132Z,3.53
2022-10-18T00:27:35.308Z,3.20
2022-10-18T00:28:39.074Z,3.70
2022-10-18T00:29:40.715Z,3.37
2022-10-18T00:30:42.291Z,3.33
2022-10-18T00:31:44.433Z,3.33
2022-10-18T00:32:45.967Z,3.50
2022-10-18T00:33:50.992Z,2.90
2022-10-18T00:34:52.762Z,3.30
2022-10-18T00:35:54.346Z,3.20
2022-10-18T00:36:56.001Z,3.20
2022-10-18T00:37:57.533Z,3.47
2022-10-18T00:38:59.047Z,3.40
2022-10-18T00:40:00.614Z,3.23
2022-10-18T00:41:03.101Z,3.10
2022-10-18T00:42:04.879Z,3.70
2022-10-18T00:43:06.406Z,3.27
2022-10-18T00:44:27.847Z,3.63
2022-10-18T00:45:29.578Z,3.37
2022-10-18T00:46:33.953Z,3.70
2022-10-18T00:47:35.861Z,3.60
2022-10-18T00:48:37.630Z,3.40
2022-10-18T00:49:43.912Z,3.20
2022-10-18T00:50:46.590Z,3.57
2022-10-18T00:52:00.781Z,3.37
2022-10-18T00:53:07.012Z,3.30
2022-10-18T00:54:08.624Z,3.60
2022-10-18T00:55:10.842Z,4.13
2022-10-18T00:56:13.667Z,3.77
2022-10-18T00:57:15.813Z,3.90
2022-10-18T00:58:19.266Z,4.03
2022-10-18T00:59:21.256Z,3.60
2022-10-18T01:00:23.086Z,3.77
2022-10-18T01:01:27.608Z,3.70
2022-10-18T01:02:32.120Z,3.80
2022-10-18T01:03:35.389Z,3.90
2022-10-18T01:04:37.126Z,3.70
2022-10-18T01:05:44.218Z,4.37
2022-10-18T01:07:08.759Z,3.77
2022-10-18T01:08:19.259Z,3.60
2022-10-18T01:09:30.739Z,3.80
2022-10-18T01:10:48.383Z,4.17
2022-10-18T01:12:08.513Z,4.00
2022-10-18T01:13:57.665Z,4.57
2022-10-18T01:15:06.268Z,4.50
2022-10-18T01:16:17.187Z,4.33
2022-10-18T01:17:32.805Z,3.90
2022-10-18T01:18:37.471Z,4.17
2022-10-18T01:20:03.404Z,4.40
2022-10-18T01:21:22.430Z,3.97
2022-10-18T01:22:28.994Z,4.27
2022-10-18T01:24:05.446Z,4.40
2022-10-18T01:25:07.098Z,4.07
2022-10-18T01:26:35.047Z,4.07
2022-10-18T01:27:59.442Z,4.27
2022-10-18T01:29:17.146Z,4.23
2022-10-18T01:30:48.319Z,4.10
2022-10-18T01:32:06.334Z,4.30
2022-10-18T01:33:10.482Z,3.87
2022-10-18T01:34:16.941Z,4.20
2022-10-18T01:35:25.395Z,3.67
2022-10-18T01:36:34.912Z,3.30
2022-10-18T01:37:38.677Z,3.50
2022-10-18T01:38:42.908Z,3.20
2022-10-18T01:39:47.269Z,3.10
2022-10-18T01:40:50.690Z,3.13
2022-10-18T01:41:54.406Z,3.13
2022-10-18T01:42:56.046Z,2.87
2022-10-18T01:44:02.176Z,2.53
2022-10-18T01:45:04.618Z,2.53
2022-10-18T01:46:08.635Z,2.90
2022-10-18T01:47:13.079Z,2.43
2022-10-18T01:48:16.365Z,2.80
2022-10-18T01:49:17.879Z,2.73
2022-10-18T01:50:29.437Z,2.83
2022-10-18T01:51:33.043Z,2.50
2022-10-18T01:52:34.998Z,2.67
2022-10-18T01:53:36.654Z,2.77
2022-10-18T01:54:42.265Z,2.70
2022-10-18T01:55:51.184Z,2.57
2022-10-18T01:57:00.392Z,2.60
2022-10-18T01:58:39.541Z,3.00
2022-10-18T01:59:59.307Z,2.93
2022-10-18T02:02:39.900Z,3.33
2022-10-18T02:03:44.565Z,3.77
2022-10-18T02:05:06.747Z,3.33
2022-10-18T02:06:18.948Z,3.90
2022-10-18T02:07:37.199Z,3.60
2022-10-18T02:08:44.701Z,4.07
2022-10-18T02:09:55.676Z,3.77
2022-10-18T02:11:02.686Z,3.70
2022-10-18T02:12:06.371Z,3.70
2022-10-18T02:13:10.858Z,3.70
2022-10-18T02:14:16.479Z,3.53
2022-10-18T02:15:23.789Z,3.73
2022-10-18T02:16:37.832Z,3.90
2022-10-18T02:17:40.734Z,3.23
2022-10-18T02:19:05.835Z,3.80
2022-10-18T02:20:10.170Z,3.93
2022-10-18T02:21:15.885Z,3.50
2022-10-18T02:22:18.533Z,3.93
2022-10-18T02:23:24.047Z,3.90
2022-10-18T02:24:34.439Z,3.67
2022-10-18T02:25:36.941Z,4.10
2022-10-18T02:26:38.837Z,4.30
2022-10-18T02:27:40.436Z,3.60
2022-10-18T02:28:42.603Z,4.20
2022-10-18T02:29:45.214Z,4.30
2022-10-18T02:30:53.208Z,4.37
2022-10-18T02:32:31.540Z,4.60
2022-10-18T02:33:45.405Z,3.97
2022-10-18T02:34:57.169Z,3.67
2022-10-18T02:36:10.516Z,4.03
2022-10-18T02:37:14.479Z,4.10
2022-10-18T02:38:18.845Z,3.60
2022-10-18T02:39:35.796Z,3.73
2022-10-18T02:40:37.647Z,3.80
2022-10-18T02:41:39.266Z,3.70
2022-10-18T02:42:50.918Z,3.83
2022-10-18T02:43:53.054Z,4.23
2022-10-18T02:44:54.641Z,3.80
2022-10-18T02:45:56.222Z,3.77
2022-10-18T02:46:57.733Z,4.07
2022-10-18T02:47:59.284Z,3.93
2022-10-18T02:49:00.826Z,4.27
2022-10-18T02:50:02.376Z,3.90
2022-10-18T02:51:03.995Z,4.37
2022-10-18T02:52:05.540Z,4.00
2022-10-18T02:53:07.036Z,4.20
2022-10-18T02:54:08.655Z,4.23
2022-10-18T02:55:10.855Z,4.47
2022-10-18T02:56:12.444Z,3.90
2022-10-18T02:57:14.008Z,4.17
2022-10-18T02:58:15.528Z,4.17
2022-10-18T02:59:17.073Z,4.10
2022-10-18T03:00:18.698Z,4.60
2022-10-18T03:01:20.271Z,4.30
2022-10-18T03:02:21.847Z,4.47
2022-10-18T03:03:23.385Z,4.37
2022-10-18T03:04:24.941Z,4.77
2022-10-18T03:05:26.502Z,4.27
2022-10-18T03:06:28.597Z,4.80
2022-10-18T03:07:30.657Z,4.73
2022-10-18T03:08:32.531Z,4.50
2022-10-18T03:09:34.056Z,4.27
2022-10-18T03:10:35.585Z,4.27
2022-10-18T03:11:37.235Z,4.53
2022-10-18T03:12:38.817Z,5.07
2022-10-18T03:13:40.352Z,5.13
2022-10-18T03:14:41.872Z,5.60
2022-10-18T03:15:43.404Z,5.03
2022-10-18T03:16:44.949Z,4.80
2022-10-18T03:17:46.518Z,4.73
2022-10-18T03:18:48.034Z,5.20
2022-10-18T03:19:49.659Z,4.90
2022-10-18T03:20:51.171Z,5.63
2022-10-18T03:21:52.789Z,5.07
2022-10-18T03:22:54.320Z,5.10
2022-10-18T03:23:56.228Z,4.73
2022-10-18T03:24:57.737Z,4.80
2022-10-18T03:25:59.242Z,5.17
2022-10-18T03:27:00.907Z,4.67
2022-10-18T03:28:02.557Z,4.93
2022-10-18T03:29:04.161Z,4.47
2022-10-18T03:30:06.159Z,4.90
2022-10-18T03:31:07.671Z,4.63
2022-10-18T03:32:09.179Z,4.60
2022-10-18T03:33:10.699Z,4.97
2022-10-18T03:34:12.235Z,5.50
2022-10-18T03:35:13.746Z,5.23
2022-10-18T03:36:15.414Z,5.20
2022-10-18T03:37:17.033Z,5.23
2022-10-18T03:38:19.161Z,5.13
2022-10-18T03:39:20.878Z,4.93
2022-10-18T03:40:23.181Z,5.07
2022-10-18T03:41:24.812Z,4.90
2022-10-18T03:42:26.382Z,5.27
2022-10-18T03:43:27.945Z,5.43
2022-10-18T03:44:29.553Z,5.40
2022-10-18T03:45:31.652Z,5.00
2022-10-18T03:46:33.370Z,5.23
2022-10-18T03:47:34.977Z,5.50
2022-10-18T03:48:36.882Z,5.57
2022-10-18T03:49:39.042Z,5.07
2022-10-18T03:50:40.964Z,5.17
2022-10-18T03:51:42.478Z,5.47
2022-10-18T03:52:43.990Z,5.30
2022-10-18T03:53:45.535Z,5.47
2022-10-18T03:54:47.040Z,5.40
2022-10-18T03:55:55.601Z,5.10
2022-10-18T03:56:57.620Z,4.97
2022-10-18T03:57:59.147Z,5.20
2022-10-18T03:59:00.725Z,5.73
2022-10-18T04:00:02.273Z,5.40
2022-10-18T04:01:03.827Z,5.50
2022-10-18T04:02:05.479Z,5.63
2022-10-18T04:03:06.984Z,5.10
2022-10-18T04:04:08.545Z,5.77
2022-10-18T04:05:10.177Z,5.87
2022-10-18T04:06:11.707Z,5.77
2022-10-18T04:07:13.511Z,5.50
2022-10-18T04:08:15.523Z,6.10
2022-10-18T04:09:17.415Z,6.27
2022-10-18T04:10:18.961Z,5.80
2022-10-18T04:11:20.476Z,5.53
2022-10-18T04:12:22.009Z,5.87
2022-10-18T04:13:23.574Z,6.20
2022-10-18T04:14:25.212Z,6.13
2022-10-18T04:15:26.827Z,6.13
2022-10-18T04:16:28.361Z,6.40
2022-10-18T04:17:30.283Z,6.10
2022-10-18T04:18:34.737Z,6.70
2022-10-18T04:19:36.569Z,6.27
2022-10-18T04:20:38.263Z,7.00
2022-10-18T04:21:39.959Z,6.30
2022-10-18T04:22:41.568Z,6.70
2022-10-18T04:23:43.131Z,6.67
2022-10-18T04:24:44.760Z,5.83
2022-10-18T04:25:46.330Z,5.60
2022-10-18T04:26:47.883Z,5.53
2022-10-18T04:27:49.521Z,6.10
2022-10-18T04:28:51.249Z,6.67
2022-10-18T04:29:52.839Z,6.37
2022-10-18T04:30:54.394Z,6.27
2022-10-18T04:31:55.937Z,6.33
2022-10-18T04:32:57.471Z,6.13
2022-10-18T04:33:59.010Z,6.30
2022-10-18T04:35:00.599Z,5.90
2022-10-18T04:36:02.303Z,6.33
2022-10-18T04:37:03.842Z,6.00
2022-10-18T04:38:05.426Z,6.40
2022-10-18T04:39:07.031Z,6.30
2022-10-18T04:40:09.445Z,6.23
2022-10-18T04:41:10.965Z,5.80
2022-10-18T04:42:12.491Z,6.10
2022-10-18T04:43:14.041Z,6.73
2022-10-18T04:44:15.708Z,6.20
2022-10-18T04:45:17.333Z,5.93
2022-10-18T04:46:18.852Z,6.37
2022-10-18T04:47:20.487Z,6.10
2022-10-18T04:48:22.054Z,6.23
2022-10-18T04:49:23.569Z,6.57
2022-10-18T04:50:25.090Z,6.27
2022-10-18T04:51:27.269Z,7.10
2022-10-18T04:52:28.777Z,7.00
2022-10-18T04:53:30.362Z,6.33
2022-10-18T04:54:31.940Z,6.60
2022-10-18T04:55:33.463Z,6.27
2022-10-18T04:56:35.032Z,6.40
2022-10-18T04:57:36.598Z,6.13
2022-10-18T04:58:38.151Z,6.33
2022-10-18T04:59:39.686Z,6.40
2022-10-18T05:00:42.187Z,6.57
2022-10-18T05:01:43.813Z,6.43
2022-10-18T05:02:45.457Z,6.40
2022-10-18T05:03:47.009Z,6.40
2022-10-18T05:04:48.581Z,6.30
2022-10-18T05:06:01.263Z,6.30
2022-10-18T05:07:03.155Z,6.87
2022-10-18T05:08:06.805Z,6.03
2022-10-18T05:09:08.318Z,6.30
2022-10-18T05:10:10.108Z,6.93
2022-10-18T05:11:11.830Z,6.47
2022-10-18T05:12:13.391Z,6.60
2022-10-18T05:13:15.097Z,6.67
2022-10-18T05:14:16.952Z,6.13
2022-10-18T05:15:18.558Z,6.83
2022-10-18T05:16:20.295Z,6.90
2022-10-18T05:17:22.015Z,7.40
2022-10-18T05:18:23.536Z,6.80
2022-10-18T05:19:25.139Z,7.63
2022-10-18T05:20:26.654Z,7.63
2022-10-18T05:21:28.198Z,7.67
2022-10-18T05:22:30.007Z,7.37
2022-10-18T05:23:31.693Z,8.13
2022-10-18T05:24:33.210Z,8.97
2022-10-18T05:25:34.718Z,9.67
2022-10-18T05:26:36.354Z,10.03
2022-10-18T05:27:37.875Z,9.60
2022-10-18T05:28:40.859Z,10.07
2022-10-18T05:29:42.992Z,9.57
2022-10-18T05:30:44.549Z,11.20
2022-10-18T05:31:46.084Z,10.93
2022-10-18T05:32:47.695Z,10.40
2022-10-18T05:33:49.180Z,10.47
2022-10-18T05:34:50.713Z,9.47
2022-10-18T05:35:52.257Z,9.80
2022-10-18T05:36:53.792Z,8.70
2022-10-18T05:37:55.286Z,8.70
2022-10-18T05:38:58.620Z,9.73
2022-10-18T05:40:02.646Z,7.50
2022-10-18T05:41:05.357Z,8.60
2022-10-18T05:42:06.943Z,8.37
2022-10-18T05:43:08.476Z,8.57
2022-10-18T05:44:09.981Z,8.63
2022-10-18T05:45:11.525Z,8.57
2022-10-18T05:46:15.337Z,8.13
2022-10-18T05:47:17.305Z,8.70
2022-10-18T05:48:19.071Z,7.67
2022-10-18T05:49:20.841Z,7.57
2022-10-18T05:50:22.407Z,7.60
2022-10-18T05:51:24.111Z,7.10
2022-10-18T05:52:25.639Z,7.67
2022-10-18T05:53:37.100Z,7.53
2022-10-18T05:54:40.488Z,6.83
2022-10-18T05:55:42.009Z,7.20
2022-10-18T05:56:43.549Z,7.57
2022-10-18T05:57:50.178Z,7.70
2022-10-18T05:58:52.205Z,7.10
2022-10-18T05:59:53.749Z,7.50
2022-10-18T06:00:59.151Z,7.43
2022-10-18T06:02:00.738Z,7.40
2022-10-18T06:03:02.273Z,7.60
2022-10-18T06:04:03.879Z,7.40
2022-10-18T06:05:05.573Z,7.80
2022-10-18T06:06:10.124Z,7.73
2022-10-18T06:07:12.474Z,8.10
2022-10-18T06:08:14.197Z,7.27
2022-10-18T06:09:15.761Z,7.50
2022-10-18T06:10:17.282Z,7.30
2022-10-18T06:11:20.338Z,7.10
2022-10-18T06:12:21.876Z,7.47
2022-10-18T06:13:23.587Z,7.23
2022-10-18T06:14:25.142Z,7.53
2022-10-18T06:15:26.721Z,7.93
2022-10-18T06:16:32.195Z,8.03
2022-10-18T06:17:34.456Z,7.00
2022-10-18T06:18:36.629Z,7.13
2022-10-18T06:19:38.138Z,6.90
2022-10-18T06:20:39.659Z,6.97
2022-10-18T06:21:41.546Z,7.40
2022-10-18T06:22:43.058Z,7.80
2022-10-18T06:23:51.831Z,8.53
2022-10-18T06:24:57.126Z,6.63
2022-10-18T06:26:04.107Z,7.17
2022-10-18T06:27:09.039Z,6.60
2022-10-18T06:28:12.281Z,7.53
2022-10-18T06:29:15.231Z,6.97
2022-10-18T06:30:17.056Z,7.53
2022-10-18T06:31:21.309Z,7.03
2022-10-18T06:32:22.873Z,7.23
2022-10-18T06:33:24.711Z,6.77
2022-10-18T06:34:26.322Z,7.23
2022-10-18T06:35:27.890Z,7.10
2022-10-18T06:36:29.403Z,7.10
2022-10-18T06:37:31.331Z,6.77
2022-10-18T06:38:34.359Z,7.37
2022-10-18T06:39:35.909Z,8.20
2022-10-18T06:40:38.224Z,9.20
2022-10-18T06:41:39.797Z,9.23
2022-10-18T06:42:41.393Z,9.60
2022-10-18T06:43:43.853Z,9.50
2022-10-18T06:44:45.433Z,9.37
2022-10-18T06:45:47.018Z,10.00
2022-10-18T06:46:49.336Z,8.83
2022-10-18T06:47:50.849Z,9.87
2022-10-18T06:48:52.372Z,9.50
2022-10-18T06:49:53.947Z,8.90
2022-10-18T06:51:00.573Z,7.73
2022-10-18T06:52:02.452Z,8.50
2022-10-18T06:53:06.229Z,7.13
2022-10-18T06:54:17.612Z,7.30
2022-10-18T06:55:19.856Z,7.20
2022-10-18T06:56:21.434Z,6.37
2022-10-18T06:57:22.987Z,6.30
2022-10-18T06:58:24.545Z,5.87
2022-10-18T06:59:28.885Z,6.63
2022-10-18T07:00:32.757Z,6.70
2022-10-18T07:01:34.400Z,6.80
2022-10-18T07:02:37.442Z,6.33
2022-10-18T07:03:39.696Z,6.00
2022-10-18T07:04:42.072Z,6.07
2022-10-18T07:05:43.711Z,5.87
2022-10-18T07:06:45.387Z,6.30
2022-10-18T07:07:46.898Z,6.97
2022-10-18T07:08:49.670Z,6.20
2022-10-18T07:09:51.224Z,6.60
2022-10-18T07:10:53.354Z,6.57
2022-10-18T07:11:54.935Z,6.40
2022-10-18T07:13:19.683Z,6.60
2022-10-18T07:14:17.933Z,6.90
2022-10-18T07:15:22.604Z,6.87
2022-10-18T07:16:24.201Z,7.73
2022-10-18T07:17:26.426Z,7.00
2022-10-18T07:18:28.037Z,7.80
2022-10-18T07:19:29.558Z,7.37
2022-10-18T07:20:31.106Z,7.27
2022-10-18T07:21:32.669Z,6.93
2022-10-18T07:22:34.223Z,7.10
2022-10-18T07:23:37.509Z,6.90
2022-10-18T07:24:39.397Z,6.97
2022-10-18T07:25:40.930Z,6.90
2022-10-18T07:26:42.676Z,7.50
2022-10-18T07:27:44.192Z,7.90
2022-10-18T07:28:48.914Z,7.60
2022-10-18T07:29:50.521Z,7.33
2022-10-18T07:30:52.107Z,6.77
2022-10-18T07:31:53.627Z,7.23
2022-10-18T07:32:55.143Z,6.77
2022-10-18T07:33:57.247Z,7.10
2022-10-18T07:34:58.781Z,7.33
2022-10-18T07:36:05.394Z,7.67
2022-10-18T07:37:06.916Z,6.83
2022-10-18T07:38:08.433Z,8.03
2022-10-18T07:39:10.071Z,7.20
2022-10-18T07:40:12.202Z,7.40
2022-10-18T07:41:15.025Z,6.63
2022-10-18T07:42:16.607Z,6.33
2022-10-18T07:43:18.125Z,6.50
2022-10-18T07:44:19.715Z,6.33
2022-10-18T07:45:21.261Z,5.67
2022-10-18T07:46:23.059Z,5.93
2022-10-18T07:47:24.587Z,8.47
2022-10-18T07:48:26.725Z,7.50
2022-10-18T07:49:28.226Z,7.50
2022-10-18T07:50:29.950Z,7.30
2022-10-18T07:51:32.891Z,7.57
2022-10-18T07:52:34.562Z,6.83
2022-10-18T07:53:36.095Z,6.40
2022-10-18T07:54:37.691Z,7.00
2022-10-18T07:55:39.587Z,6.50
2022-10-18T07:56:41.331Z,6.30
2022-10-18T07:57:42.891Z,6.47
2022-10-18T07:58:45.978Z,6.17
2022-10-18T07:59:48.334Z,5.87
2022-10-18T08:00:49.885Z,5.90
2022-10-18T08:01:51.496Z,6.47
2022-10-18T08:02:57.690Z,7.03
2022-10-18T08:04:06.138Z,6.90
2022-10-18T08:05:09.602Z,5.90
2022-10-18T08:06:13.367Z,6.07
2022-10-18T08:07:14.914Z,6.00
2022-10-18T08:08:16.698Z,5.77
2022-10-18T08:09:18.428Z,6.20
2022-10-18T08:10:21.352Z,5.83
2022-10-18T08:11:24.826Z,6.70
2022-10-18T08:12:26.358Z,5.90
2022-10-18T08:13:27.905Z,6.63
2022-10-18T08:14:29.725Z,6.07
2022-10-18T08:15:31.314Z,6.20
2022-10-18T08:17:34.830Z,6.07
2022-10-18T08:18:38.021Z,5.27
2022-10-18T08:19:48.230Z,5.90
2022-10-18T08:21:01.503Z,5.67
2022-10-18T08:22:03.084Z,6.17
2022-10-18T08:23:04.871Z,6.07
2022-10-18T08:24:06.450Z,6.87
2022-10-18T08:25:08.606Z,6.53
2022-10-18T08:26:12.934Z,6.07
2022-10-18T08:27:15.413Z,6.20
2022-10-18T08:28:17.513Z,5.63
2022-10-18T08:29:23.219Z,5.63
2022-10-18T08:30:26.493Z,4.40
2022-10-18T08:31:28.137Z,4.20
2022-10-18T08:32:33.404Z,4.23
2022-10-18T08:33:36.256Z,4.00
2022-10-18T08:35:40.295Z,4.50
2022-10-18T08:36:41.940Z,5.10
2022-10-18T08:37:45.329Z,4.43
2022-10-18T08:38:47.130Z,5.83
2022-10-18T08:39:48.714Z,4.90
2022-10-18T08:40:50.845Z,4.50
2022-10-18T08:42:01.492Z,4.80
2022-10-18T08:43:22.626Z,4.53
2022-10-18T08:44:26.117Z,5.20
2022-10-18T08:45:41.466Z,5.23
2022-10-18T08:46:58.951Z,4.67
2022-10-18T08:48:01.557Z,4.77
2022-10-18T08:49:05.561Z,5.43
2022-10-18T08:50:14.893Z,4.63
2022-10-18T08:51:45.540Z,4.23
2022-10-18T08:53:25.940Z,4.77
2022-10-18T08:54:37.465Z,4.13
2022-10-18T08:56:11.242Z,4.20
2022-10-18T08:57:15.764Z,4.30
2022-10-18T08:58:19.918Z,4.30
2022-10-18T08:59:24.744Z,4.27
2022-10-18T09:00:34.494Z,4.30
2022-10-18T09:01:36.217Z,4.30
2022-10-18T09:03:16.769Z,4.07
2022-10-18T09:04:33.499Z,5.00
2022-10-18T09:06:01.384Z,4.60
2022-10-18T09:07:26.131Z,4.43
2022-10-18T09:09:11.354Z,4.30
2022-10-18T09:10:33.901Z,4.03
2022-10-18T09:11:51.097Z,4.10
2022-10-18T09:13:19.085Z,4.30
2022-10-18T09:14:32.498Z,4.37
2022-10-18T09:15:45.529Z,4.50
2022-10-18T09:17:05.917Z,4.60
2022-10-18T09:18:23.466Z,5.10
2022-10-18T09:19:55.175Z,5.17
2022-10-18T09:21:05.484Z,4.57
2022-10-18T09:22:13.934Z,4.77
2022-10-18T09:23:21.140Z,4.60
2022-10-18T09:24:32.829Z,4.20
2022-10-18T09:25:34.355Z,3.80
2022-10-18T09:26:50.141Z,4.53
2022-10-18T09:28:27.174Z,3.77
2022-10-18T09:29:54.744Z,3.93
2022-10-18T09:31:17.898Z,3.77
2022-10-18T09:32:44.783Z,3.97
2022-10-18T09:34:04.663Z,4.13
2022-10-18T09:35:24.206Z,3.80
2022-10-18T09:36:35.391Z,3.97
2022-10-18T09:37:37.014Z,3.70
2022-10-18T09:38:51.561Z,4.10
2022-10-18T09:40:03.215Z,3.87
2022-10-18T09:41:12.268Z,3.77
2022-10-18T09:42:26.831Z,3.50
2022-10-18T09:44:12.639Z,3.90
2022-10-18T09:45:37.845Z,3.90
2022-10-18T09:46:47.926Z,4.30
2022-10-18T09:48:04.476Z,4.17
2022-10-18T09:49:40.392Z,3.73
2022-10-18T09:50:46.454Z,3.63
2022-10-18T09:51:50.228Z,3.77
2022-10-18T09:53:02.140Z,3.53
2022-10-18T09:54:12.838Z,3.67
2022-10-18T09:55:28.732Z,3.53
2022-10-18T09:56:39.450Z,3.37
2022-10-18T09:57:57.321Z,3.50
2022-10-18T09:58:58.985Z,3.10
2022-10-18T10:00:03.328Z,3.27
2022-10-18T10:01:05.288Z,3.13
2022-10-18T10:02:09.366Z,3.20
2022-10-18T10:03:14.931Z,3.20
2022-10-18T10:04:16.435Z,4.10
2022-10-18T10:05:18.948Z,3.70
2022-10-18T10:06:29.973Z,3.50
2022-10-18T10:07:41.557Z,3.77
2022-10-18T10:09:07.389Z,3.37
2022-10-18T10:10:25.680Z,3.87
2022-10-18T10:11:28.766Z,3.23
2022-10-18T10:12:39.385Z,3.83
2022-10-18T10:13:40.975Z,3.37
2022-10-18T10:14:45.355Z,3.27
2022-10-18T10:16:03.263Z,3.23
2022-10-18T10:17:34.938Z,3.70
2022-10-18T10:18:40.289Z,3.40
2022-10-18T10:19:57.424Z,3.50
2022-10-18T10:21:01.856Z,3.33
2022-10-18T10:22:10.457Z,3.60
2022-10-18T10:23:37.385Z,3.27
2022-10-18T10:24:44.671Z,3.50
2022-10-18T10:25:52.012Z,3.10
2022-10-18T10:27:00.289Z,3.37
2022-10-18T10:28:13.343Z,4.07
2022-10-18T10:29:45.524Z,3.63
2022-10-18T10:30:47.559Z,3.28
2022-10-18T10:32:02.421Z,3.27
2022-10-18T10:33:06.713Z,3.20
2022-10-18T10:34:14.482Z,2.37
2022-10-18T10:35:42.322Z,3.33
2022-10-18T10:36:54.680Z,3.10
2022-10-18T10:37:57.161Z,3.05
2022-10-18T10:39:18.977Z,2.70
2022-10-18T10:40:26.372Z,2.83
2022-10-18T10:42:59.997Z,2.80
2022-10-18T10:44:26.285Z,3.30
2022-10-18T10:45:41.286Z,3.23
2022-10-18T10:46:43.487Z,2.80
2022-10-18T10:47:45.073Z,2.70
2022-10-18T10:49:09.579Z,2.70
2022-10-18T10:50:28.313Z,2.47
2022-10-18T10:51:29.854Z,2.37
2022-10-18T10:52:31.635Z,2.90
2022-10-18T10:53:59.039Z,2.40
2022-10-18T10:55:30.459Z,2.60
2022-10-18T10:56:53.199Z,2.83
2022-10-18T10:57:56.346Z,2.73
2022-10-18T10:59:14.517Z,2.60
2022-10-18T11:00:39.121Z,3.00
2022-10-18T11:01:41.732Z,2.53
2022-10-18T11:02:54.277Z,2.60
2022-10-18T11:04:28.122Z,3.10
2022-10-18T11:05:29.673Z,2.63
2022-10-18T11:06:34.261Z,3.00
2022-10-18T11:07:43.290Z,2.50
2022-10-18T11:10:01.272Z,2.67
2022-10-18T11:11:27.716Z,2.73
2022-10-18T11:12:52.431Z,2.70
2022-10-18T11:14:21.115Z,2.67
2022-10-18T11:15:43.321Z,2.70
2022-10-18T11:17:08.061Z,2.75
2022-10-18T11:18:24.162Z,2.53
2022-10-18T11:19:39.349Z,2.58
2022-10-18T11:20:46.138Z,2.50
2022-10-18T11:21:47.834Z,2.38
2022-10-18T11:23:19.272Z,2.50
2022-10-18T11:24:24.942Z,2.30
2022-10-18T11:25:52.614Z,2.53
2022-10-18T11:27:02.161Z,3.00
2022-10-18T11:28:12.038Z,2.53
2022-10-18T11:29:39.991Z,2.78
2022-10-18T11:30:47.836Z,2.75
2022-10-18T11:31:49.333Z,2.90
2022-10-18T11:33:15.745Z,2.67
2022-10-18T11:34:32.781Z,2.70
2022-10-18T11:35:54.590Z,3.30
2022-10-18T11:37:23.044Z,2.42
2022-10-18T11:38:29.362Z,3.00
2022-10-18T11:39:57.459Z,3.30
2022-10-18T11:41:27.810Z,2.90
2022-10-18T11:42:47.826Z,3.47
2022-10-18T11:44:02.244Z,3.00
2022-10-18T11:45:10.729Z,2.97
2022-10-18T11:46:44.879Z,3.20
2022-10-18T11:48:04.696Z,2.50
2022-10-18T11:49:11.571Z,3.20
2022-10-18T11:50:26.597Z,3.00
2022-10-18T11:51:50.220Z,3.35
2022-10-18T11:52:55.878Z,2.80
2022-10-18T11:54:15.509Z,2.95
2022-10-18T11:55:38.516Z,2.88
2022-10-18T11:56:52.303Z,2.47
2022-10-18T11:58:40.540Z,2.50
2022-10-18T12:00:02.837Z,2.80
2022-10-18T12:01:28.916Z,2.83
2022-10-18T12:02:55.935Z,2.70
2022-10-18T12:04:03.279Z,2.53
2022-10-18T12:06:37.402Z,2.85
2022-10-18T12:07:58.430Z,2.60
2022-10-18T12:09:08.167Z,2.97
2022-10-18T12:10:22.079Z,2.80
2022-10-18T12:11:44.019Z,2.45
2022-10-18T12:12:58.408Z,2.75
2022-10-18T12:14:03.392Z,2.83
2022-10-18T12:15:16.208Z,2.60
2022-10-18T12:16:38.866Z,3.05
2022-10-18T12:17:52.618Z,2.70
2022-10-18T12:19:00.378Z,2.70
2022-10-18T12:20:11.360Z,2.80
2022-10-18T12:21:13.788Z,3.03
2022-10-18T12:22:28.333Z,2.78
2022-10-18T12:23:29.920Z,2.80
2022-10-18T12:24:33.113Z,2.80
2022-10-18T12:25:38.587Z,2.92
2022-10-18T12:26:40.369Z,2.80
2022-10-18T12:28:17.289Z,2.75
2022-10-18T12:29:35.355Z,3.30
2022-10-18T12:31:03.117Z,3.13
2022-10-18T12:32:16.609Z,3.17
2022-10-18T12:33:28.125Z,2.92
2022-10-18T12:34:36.486Z,3.55
2022-10-18T12:36:06.010Z,3.60
2022-10-18T12:37:35.405Z,3.80
2022-10-18T12:38:41.585Z,3.05
2022-10-18T12:40:12.463Z,3.22
2022-10-18T12:41:22.832Z,2.83
2022-10-18T12:42:30.894Z,3.40
2022-10-18T12:43:37.940Z,2.78
2022-10-18T12:44:40.226Z,3.35
2022-10-18T12:45:54.659Z,3.45
2022-10-18T12:46:58.750Z,3.03
2022-10-18T12:48:07.647Z,3.13
2022-10-18T12:49:11.713Z,3.22
2022-10-18T12:50:35.202Z,2.97
2022-10-18T12:51:50.789Z,3.60
2022-10-18T12:53:10.255Z,3.13
2022-10-18T12:54:12.851Z,3.65
2022-10-18T12:55:19.453Z,3.17
2022-10-18T12:56:30.784Z,3.00
2022-10-18T12:57:53.795Z,3.28
2022-10-18T12:59:17.131Z,3.05
2022-10-18T13:00:31.010Z,2.83
2022-10-18T13:01:50.692Z,3.35
2022-10-18T13:03:18.121Z,3.60
2022-10-18T13:04:28.834Z,2.95
2022-10-18T13:05:53.515Z,3.30
2022-10-18T13:07:05.221Z,3.35
2022-10-18T13:08:31.690Z,3.22
2022-10-18T13:10:02.936Z,3.45
2022-10-18T13:11:10.509Z,2.88
2022-10-18T13:12:14.677Z,3.42
2022-10-18T13:13:40.525Z,2.80
2022-10-18T13:15:12.642Z,2.97
2022-10-18T13:16:22.768Z,3.30
2022-10-18T13:17:36.459Z,2.90
2022-10-18T13:18:52.267Z,3.30
2022-10-18T13:20:24.691Z,3.30
2022-10-18T13:21:58.501Z,3.00
2022-10-18T13:23:00.035Z,2.90
2022-10-18T13:24:14.843Z,2.90
2022-10-18T13:25:29.347Z,3.38
2022-10-18T13:26:58.149Z,3.38
2022-10-18T13:28:35.925Z,3.03
2022-10-18T13:30:00.869Z,2.90
2022-10-18T13:31:24.161Z,2.92
2022-10-18T13:32:44.387Z,2.90
2022-10-18T13:33:46.052Z,2.90
2022-10-18T13:34:47.692Z,2.83
2022-10-18T13:36:07.797Z,2.90
2022-10-18T13:37:09.271Z,3.10
2022-10-18T13:38:34.587Z,2.80
2022-10-18T13:39:38.234Z,2.30
2022-10-18T13:40:40.061Z,2.85
2022-10-18T13:41:47.686Z,2.72
2022-10-18T13:42:49.275Z,2.70
2022-10-18T13:43:53.592Z,3.08
2022-10-18T13:44:55.159Z,2.75
2022-10-18T13:45:56.777Z,2.42
2022-10-18T13:46:58.346Z,2.90
2022-10-18T13:48:30.882Z,2.70
2022-10-18T13:49:38.586Z,2.88
2022-10-18T13:50:43.454Z,2.70
2022-10-18T13:51:57.882Z,3.00
2022-10-18T13:53:02.385Z,2.83
2022-10-18T13:54:21.945Z,2.90
2022-10-18T13:55:23.530Z,2.63
2022-10-18T13:56:45.304Z,2.63
2022-10-18T13:58:11.708Z,2.55
2022-10-18T13:59:20.905Z,2.70
2022-10-18T14:00:49.127Z,2.75
2022-10-18T14:02:10.000Z,2.50
2022-10-18T14:03:57.526Z,2.50
2022-10-18T14:05:25.051Z,2.28
2022-10-18T14:06:37.255Z,2.70
2022-10-18T14:07:40.666Z,2.40
2022-10-18T14:08:44.708Z,2.50
2022-10-18T14:09:55.635Z,2.20
2022-10-18T14:11:03.289Z,2.58
2022-10-18T14:12:22.949Z,2.60
2022-10-18T14:13:28.845Z,2.55
2022-10-18T14:14:50.369Z,2.70
2022-10-18T14:15:56.066Z,2.92
2022-10-18T14:17:07.390Z,2.50
2022-10-18T14:18:17.410Z,2.67
2022-10-18T14:19:50.832Z,2.42
2022-10-18T14:21:12.768Z,2.42
2022-10-18T14:22:24.986Z,2.60
2022-10-18T14:23:31.645Z,3.15
2022-10-18T14:24:34.221Z,2.67
2022-10-18T14:25:37.924Z,2.58
2022-10-18T14:27:48.693Z,2.33
2022-10-18T14:29:16.021Z,2.38
2022-10-18T14:30:20.228Z,2.53
2022-10-18T14:31:21.764Z,2.50
2022-10-18T14:32:27.778Z,2.70
2022-10-18T14:33:37.060Z,2.38
2022-10-18T14:34:38.776Z,2.47
2022-10-18T14:35:41.354Z,2.60
2022-10-18T14:36:47.715Z,2.83
2022-10-18T14:37:54.304Z,2.13
2022-10-18T14:39:00.792Z,2.58
2022-10-18T14:40:04.296Z,2.17
2022-10-18T14:41:23.595Z,2.20
2022-10-18T14:42:27.608Z,2.10
2022-10-18T14:43:29.142Z,2.20
2022-10-18T14:44:32.134Z,2.10
2022-10-18T14:45:33.795Z,2.13
2022-10-18T14:46:45.701Z,2.10
2022-10-18T14:47:47.546Z,2.53
2022-10-18T14:48:57.014Z,2.08
2022-10-18T14:49:58.818Z,2.28
2022-10-18T14:51:03.766Z,2.60
2022-10-18T14:52:05.607Z,2.90
2022-10-18T14:53:09.586Z,2.50
2022-10-18T14:54:29.056Z,2.90
2022-10-18T14:55:33.984Z,2.50
2022-10-18T14:56:41.792Z,2.38
2022-10-18T14:57:43.697Z,2.35
2022-10-18T14:58:45.554Z,2.63
2022-10-18T14:59:57.204Z,2.45
2022-10-18T15:01:02.550Z,2.58
2022-10-18T15:02:18.244Z,3.25
2022-10-18T15:03:21.034Z,2.70
2022-10-18T15:04:27.815Z,3.00
2022-10-18T15:05:31.056Z,2.70
2022-10-18T15:06:33.324Z,2.90
2022-10-18T15:07:35.935Z,2.80
2022-10-18T15:08:42.247Z,2.63
2022-10-18T15:09:45.672Z,2.92
2022-10-18T15:10:48.608Z,2.67